Main page
METAR-TAF:

METAR-TAF

Airports :

Hévíz, Hungary

Hévíz–Balaton Airport

latitude: 46-41-11N, longitude: 017-09-33E, elevation: 124 m

Current weather observation

The report was made 3 hours and 31 minutes ago, at 15:45 UTC
Wind 6 kt from the North
Temperature 5°C
Humidity 75%
Pressure 1023 hPa
Visibility 10 km or more
Broken clouds at a height of 3300 ft
Overcast at a height of 4000 ft

METAR: LHSM 171545Z 36006KT 9999 BKN033 OVC040 05/01 Q1023

Time: 20:16 (19:16 UTC)

Forecast

The report was made 8 hours and 1 minutes ago, at 11:15 UTC
Forecast valid from 17 at 12 UTC to 17 at 21 UTC
Wind 9 kt from the North
Visibility 10 km or more
Scattered clouds at a height of 1500 ft
Overcast at a height of 3300 ft
Temporary
from 17 at 12 UTC to 17 at 21 UTC
Visibility: 5000 m
Broken clouds at a height of 1000 ft
Overcast at a height of 2300 ft
light rain, drizzle, mist

TAF: LHSM 171115Z 1712/1721 01009KT 9999 SCT015 OVC033 TEMPO 1712/1721 5000 -RADZ BR BKN010 OVC023

Weather observations and forecasts of more than 4000 airports (METAR and TAF reports).

The available stations are represented by yellow and red dots on the map.

Hover mouse over dot to see the name of the station.

Then click to see weather observations and forecasts.

To change the map : click on the green buttons with a black cross to zoom in, on the green button with a dash to zoom out, or on the green arrows for adjacent maps.


METAR-TAF: